createdAt,value
2022-12-24T00:00:41.452Z,4.60
2022-12-24T00:03:08.592Z,4.13
2022-12-24T00:05:37.675Z,4.93
2022-12-24T00:08:04.901Z,4.10
2022-12-24T00:10:31.564Z,4.00
2022-12-24T00:12:58.305Z,4.40
2022-12-24T00:15:26.440Z,5.30
2022-12-24T00:17:53.133Z,5.27
2022-12-24T00:20:19.918Z,6.07
2022-12-24T00:22:46.554Z,6.70
2022-12-24T00:25:13.275Z,6.60
2022-12-24T00:27:39.935Z,7.80
2022-12-24T00:30:07.987Z,7.03
2022-12-24T00:32:35.956Z,7.67
2022-12-24T00:35:02.638Z,7.40
2022-12-24T00:37:29.330Z,7.40
2022-12-24T00:39:56.011Z,8.17
2022-12-24T00:42:22.660Z,6.53
2022-12-24T00:44:49.360Z,5.53
2022-12-24T00:47:15.993Z,5.90
2022-12-24T00:49:44.042Z,6.17
2022-12-24T00:52:10.767Z,5.50
2022-12-24T00:54:37.405Z,4.60
2022-12-24T00:57:04.068Z,4.60
2022-12-24T00:59:30.727Z,4.50
2022-12-24T01:01:57.515Z,3.33
2022-12-24T01:04:24.279Z,2.80
2022-12-24T01:06:52.292Z,3.33
2022-12-24T01:09:18.997Z,4.53
2022-12-24T01:11:45.649Z,4.13
2022-12-24T01:14:12.459Z,3.40
2022-12-24T01:16:39.513Z,4.13
2022-12-24T01:19:06.265Z,3.20
2022-12-24T01:21:32.974Z,3.67
2022-12-24T01:24:01.132Z,3.83
2022-12-24T01:26:27.809Z,4.27
2022-12-24T01:28:54.464Z,4.00
2022-12-24T01:31:21.166Z,4.37
2022-12-24T01:33:49.819Z,4.40
2022-12-24T01:36:16.619Z,4.20
2022-12-24T01:38:43.338Z,4.80
2022-12-24T01:41:16.641Z,4.97
2022-12-24T01:43:43.536Z,5.97
2022-12-24T01:46:16.275Z,6.80
2022-12-24T01:48:45.683Z,6.73
2022-12-24T01:51:18.977Z,6.43
2022-12-24T01:53:49.423Z,6.30
2022-12-24T01:56:18.651Z,6.50
2022-12-24T01:58:51.058Z,6.67
2022-12-24T02:01:18.403Z,5.50
2022-12-24T02:03:45.304Z,5.03
2022-12-24T02:06:15.018Z,5.93
2022-12-24T02:08:41.783Z,6.43
2022-12-24T02:11:13.645Z,6.40
2022-12-24T02:13:43.739Z,5.20
2022-12-24T02:16:19.517Z,4.90
2022-12-24T02:18:56.991Z,7.57
2022-12-24T02:21:44.062Z,6.60
2022-12-24T02:24:53.528Z,7.00
2022-12-24T02:27:53.983Z,6.40
2022-12-24T02:30:23.259Z,6.97
2022-12-24T02:33:16.892Z,7.23
2022-12-24T02:35:49.891Z,7.90
2022-12-24T02:38:22.733Z,6.10
2022-12-24T02:40:53.362Z,7.60
2022-12-24T02:43:23.289Z,7.67
2022-12-24T02:45:59.228Z,6.73
2022-12-24T02:48:28.702Z,6.50
2022-12-24T02:50:57.541Z,7.20
2022-12-24T02:53:24.222Z,7.70
2022-12-24T02:56:20.238Z,5.40
2022-12-24T02:59:02.742Z,6.10
2022-12-24T03:01:43.696Z,6.70
2022-12-24T03:04:22.498Z,7.30
2022-12-24T03:06:56.897Z,6.70
2022-12-24T03:09:27.899Z,6.87
2022-12-24T03:11:58.887Z,7.67
2022-12-24T03:14:27.356Z,8.90
2022-12-24T03:16:57.287Z,9.20
2022-12-24T03:19:25.337Z,7.00
2022-12-24T03:21:54.377Z,8.50
2022-12-24T03:24:21.045Z,9.97
2022-12-24T03:26:48.553Z,7.40
2022-12-24T03:29:15.361Z,8.37
2022-12-24T03:31:43.625Z,8.97
2022-12-24T03:34:12.696Z,7.97
2022-12-24T03:36:39.390Z,8.30
2022-12-24T03:39:06.963Z,7.57
2022-12-24T03:41:33.991Z,8.27
2022-12-24T03:44:00.702Z,11.37
2022-12-24T03:46:27.494Z,9.80
2022-12-24T03:48:54.316Z,9.50
2022-12-24T03:51:24.175Z,8.00
2022-12-24T03:53:52.645Z,8.07
2022-12-24T03:56:19.480Z,7.10
2022-12-24T03:58:46.390Z,9.60
2022-12-24T04:01:13.250Z,7.87
2022-12-24T04:03:40.022Z,7.37
2022-12-24T04:06:09.294Z,9.20
2022-12-24T04:08:37.936Z,10.07
2022-12-24T04:11:09.681Z,7.37
2022-12-24T04:13:36.964Z,11.20
2022-12-24T04:16:05.844Z,9.43
2022-12-24T04:18:33.062Z,8.20
2022-12-24T04:20:59.778Z,10.13
2022-12-24T04:23:26.515Z,9.70
2022-12-24T04:25:54.723Z,11.40
2022-12-24T04:28:21.446Z,9.47
2022-12-24T04:30:48.145Z,10.50
2022-12-24T04:33:14.883Z,10.70
2022-12-24T04:35:41.973Z,9.50
2022-12-24T04:38:09.114Z,9.03
2022-12-24T04:40:36.156Z,9.03
2022-12-24T04:43:04.241Z,9.00
2022-12-24T04:45:31.804Z,8.83
2022-12-24T04:47:58.486Z,9.67
2022-12-24T04:50:25.220Z,10.27
2022-12-24T04:52:51.935Z,7.60
2022-12-24T04:55:18.776Z,10.07
2022-12-24T04:57:51.185Z,9.90
2022-12-24T05:00:21.316Z,9.40
2022-12-24T05:02:48.168Z,9.03
2022-12-24T05:05:15.089Z,10.17
2022-12-24T05:07:41.770Z,8.87
2022-12-24T05:10:09.737Z,8.50
2022-12-24T05:12:36.469Z,9.23
2022-12-24T05:15:03.257Z,9.03
2022-12-24T05:17:31.293Z,8.87
2022-12-24T05:19:58.013Z,9.20
2022-12-24T05:22:24.744Z,8.53
2022-12-24T05:24:52.549Z,10.17
2022-12-24T05:27:19.367Z,9.67
2022-12-24T05:29:46.105Z,9.40
2022-12-24T05:32:12.789Z,8.87
2022-12-24T05:34:40.819Z,9.00
2022-12-24T05:37:07.485Z,8.83
2022-12-24T05:39:34.214Z,8.33
2022-12-24T05:42:00.945Z,10.00
2022-12-24T05:44:27.603Z,8.10
2022-12-24T05:46:54.290Z,9.50
2022-12-24T05:49:20.979Z,8.93
2022-12-24T05:51:48.996Z,7.30
2022-12-24T05:54:15.669Z,6.67
2022-12-24T05:56:42.446Z,6.10
2022-12-24T05:59:09.123Z,6.30
2022-12-24T06:01:35.901Z,6.13
2022-12-24T06:04:02.695Z,5.40
2022-12-24T06:06:29.440Z,5.30
2022-12-24T06:08:57.635Z,5.40
2022-12-24T06:11:26.813Z,4.00
2022-12-24T06:13:54.329Z,5.40
2022-12-24T06:16:22.288Z,5.47
2022-12-24T06:18:49.216Z,4.57
2022-12-24T06:21:16.320Z,5.07
2022-12-24T06:23:44.427Z,3.30
2022-12-24T06:26:14.577Z,3.50
2022-12-24T06:28:41.510Z,3.37
2022-12-24T06:31:12.873Z,3.10
2022-12-24T06:33:40.268Z,2.80
2022-12-24T06:36:13.211Z,4.20
2022-12-24T06:38:43.612Z,3.80
2022-12-24T06:41:11.613Z,3.40
2022-12-24T06:43:38.320Z,3.10
2022-12-24T06:46:05.401Z,3.23
2022-12-24T06:48:32.253Z,3.70
2022-12-24T06:51:01.354Z,3.60
2022-12-24T06:53:28.065Z,3.10
2022-12-24T06:56:01.570Z,3.30
2022-12-24T06:58:29.667Z,4.43
2022-12-24T07:00:56.345Z,3.67
2022-12-24T07:03:23.115Z,3.40
2022-12-24T07:05:49.858Z,3.67
2022-12-24T07:08:16.532Z,4.00
2022-12-24T07:10:45.526Z,4.10
2022-12-24T07:13:15.769Z,4.23
2022-12-24T07:15:44.056Z,3.20
2022-12-24T07:18:10.810Z,3.47
2022-12-24T07:20:37.575Z,3.07
2022-12-24T07:23:04.323Z,4.37
2022-12-24T07:25:31.027Z,3.70
2022-12-24T07:27:57.769Z,3.60
2022-12-24T07:30:24.449Z,4.43
2022-12-24T07:32:52.450Z,4.90
2022-12-24T07:35:19.183Z,6.20
2022-12-24T07:37:45.860Z,4.60
2022-12-24T07:40:12.755Z,4.17
2022-12-24T07:42:39.448Z,3.87
2022-12-24T07:45:07.400Z,5.83
2022-12-24T07:47:35.125Z,5.37
2022-12-24T07:50:03.644Z,4.93
2022-12-24T07:52:30.343Z,5.30
2022-12-24T07:54:57.085Z,6.57
2022-12-24T07:57:23.870Z,4.83
2022-12-24T07:59:50.544Z,5.60
2022-12-24T08:02:18.659Z,5.20
2022-12-24T08:04:45.698Z,5.57
2022-12-24T08:07:13.765Z,4.90
2022-12-24T08:09:40.470Z,6.43
2022-12-24T08:12:07.508Z,5.83
2022-12-24T08:14:34.275Z,5.57
2022-12-24T08:17:01.008Z,6.27
2022-12-24T08:19:27.638Z,5.50
2022-12-24T08:21:54.571Z,5.40
2022-12-24T08:24:22.766Z,6.70
2022-12-24T08:26:49.596Z,6.30
2022-12-24T08:29:16.270Z,6.70
2022-12-24T08:31:43.092Z,6.50
2022-12-24T08:34:11.415Z,5.77
2022-12-24T08:36:38.120Z,5.97
2022-12-24T08:39:04.916Z,6.77
2022-12-24T08:41:33.000Z,6.50
2022-12-24T08:43:59.776Z,5.43
2022-12-24T08:46:26.603Z,6.07
2022-12-24T08:48:53.400Z,6.60
2022-12-24T08:51:20.095Z,8.50
2022-12-24T08:53:46.873Z,8.60
2022-12-24T08:56:13.787Z,10.10
2022-12-24T08:58:41.783Z,7.97
2022-12-24T09:01:13.375Z,6.30
2022-12-24T09:03:40.672Z,6.13
2022-12-24T09:06:08.279Z,6.60
2022-12-24T09:08:35.552Z,7.43
2022-12-24T09:11:06.688Z,6.80
2022-12-24T09:13:33.855Z,6.97
2022-12-24T09:16:02.306Z,6.70
2022-12-24T09:18:29.583Z,7.23
2022-12-24T09:21:00.057Z,6.63
2022-12-24T09:23:26.987Z,6.87
2022-12-24T09:25:53.801Z,6.20
2022-12-24T09:28:20.562Z,5.90
2022-12-24T09:30:56.488Z,6.50
2022-12-24T09:33:24.844Z,6.10
2022-12-24T09:35:51.906Z,7.50
2022-12-24T09:38:18.716Z,7.23
2022-12-24T09:40:45.587Z,6.20
2022-12-24T09:43:16.816Z,6.37
2022-12-24T09:45:49.680Z,5.80
2022-12-24T09:48:19.686Z,5.00
2022-12-24T09:50:52.735Z,6.33
2022-12-24T09:53:22.361Z,7.23
2022-12-24T09:55:51.851Z,6.27
2022-12-24T09:58:23.687Z,6.00
2022-12-24T10:00:52.343Z,5.67
2022-12-24T10:03:19.533Z,6.73
2022-12-24T10:05:57.755Z,5.10
2022-12-24T10:08:34.020Z,4.97
2022-12-24T10:11:07.583Z,5.33
2022-12-24T10:13:45.400Z,5.73
2022-12-24T10:16:19.418Z,6.10
2022-12-24T10:18:54.743Z,4.90
2022-12-24T10:21:31.396Z,6.90
2022-12-24T10:24:03.643Z,6.20
2022-12-24T10:26:36.714Z,5.47
2022-12-24T10:29:13.036Z,6.67
2022-12-24T10:31:45.370Z,6.40
2022-12-24T10:34:15.465Z,5.33
2022-12-24T10:36:43.494Z,6.80
2022-12-24T10:39:17.417Z,5.27
2022-12-24T10:41:44.854Z,5.63
2022-12-24T10:44:17.500Z,5.23
2022-12-24T10:46:45.820Z,5.70
2022-12-24T10:49:15.582Z,6.53
2022-12-24T10:51:49.877Z,5.70
2022-12-24T10:54:26.291Z,5.67
2022-12-24T10:56:57.761Z,4.93
2022-12-24T10:59:27.504Z,6.20
2022-12-24T11:01:55.391Z,5.27
2022-12-24T11:04:23.777Z,5.03
2022-12-24T11:06:56.940Z,4.83
2022-12-24T11:09:26.747Z,4.70
2022-12-24T11:11:54.803Z,5.63
2022-12-24T11:14:22.223Z,6.20
2022-12-24T11:16:54.560Z,6.50
2022-12-24T11:19:30.072Z,5.60
2022-12-24T11:22:06.239Z,6.57
2022-12-24T11:24:35.410Z,4.87
2022-12-24T11:27:29.203Z,7.40
2022-12-24T11:30:23.002Z,6.63
2022-12-24T11:33:10.973Z,5.63
2022-12-24T11:35:43.446Z,6.20
2022-12-24T11:38:20.947Z,7.30
2022-12-24T11:40:49.841Z,6.60
2022-12-24T11:43:18.193Z,5.63
2022-12-24T11:45:52.389Z,5.60
2022-12-24T11:48:28.026Z,7.17
2022-12-24T11:50:59.198Z,6.70
2022-12-24T11:53:34.391Z,6.20
2022-12-24T11:56:06.436Z,7.40
2022-12-24T11:58:40.901Z,6.30
2022-12-24T12:01:21.917Z,5.73
2022-12-24T12:03:59.235Z,5.53
2022-12-24T12:06:31.489Z,6.80
2022-12-24T12:09:03.303Z,5.57
2022-12-24T12:11:30.908Z,6.37
2022-12-24T12:14:01.429Z,6.20
2022-12-24T12:16:32.395Z,5.57
2022-12-24T12:19:05.656Z,5.20
2022-12-24T12:21:42.662Z,4.57
2022-12-24T12:24:16.511Z,3.90
2022-12-24T12:26:45.311Z,4.30
2022-12-24T12:29:25.220Z,4.67
2022-12-24T12:31:56.976Z,4.50
2022-12-24T12:34:29.617Z,4.87
2022-12-24T12:37:00.155Z,4.60
2022-12-24T12:39:35.675Z,4.87
2022-12-24T12:42:11.685Z,4.60
2022-12-24T12:44:56.075Z,4.43
2022-12-24T12:47:51.971Z,5.23
2022-12-24T12:50:25.393Z,4.57
2022-12-24T12:53:31.680Z,5.23
2022-12-24T12:56:08.774Z,3.50
2022-12-24T12:58:39.497Z,3.30
2022-12-24T13:01:12.988Z,3.30
2022-12-24T13:04:01.259Z,3.63
2022-12-24T13:06:58.635Z,3.47
2022-12-24T13:09:57.319Z,3.40
2022-12-24T13:12:42.992Z,3.37
2022-12-24T13:15:32.580Z,2.83
2022-12-24T13:18:21.843Z,3.47
2022-12-24T13:20:50.261Z,2.27
2022-12-24T13:23:20.243Z,9.27
2022-12-24T13:25:49.241Z,2.80
2022-12-24T13:28:34.294Z,3.20
2022-12-24T13:31:25.112Z,4.17
2022-12-24T13:33:53.594Z,6.40
2022-12-24T13:36:21.491Z,2.17
2022-12-24T13:38:49.449Z,3.03
2022-12-24T13:41:55.719Z,3.30
2022-12-24T13:44:30.390Z,4.97
2022-12-24T13:46:59.786Z,2.70
2022-12-24T13:49:30.298Z,2.23
2022-12-24T13:52:25.338Z,2.17
2022-12-24T13:55:14.951Z,3.20
2022-12-24T13:57:45.824Z,2.33
2022-12-24T14:00:38.922Z,1.73
2022-12-24T14:03:18.783Z,2.50
2022-12-24T14:05:48.716Z,1.87
2022-12-24T14:08:25.264Z,1.80
2022-12-24T14:11:01.642Z,4.00
2022-12-24T14:13:54.936Z,2.10
2022-12-24T14:16:24.600Z,2.10
2022-12-24T14:18:59.351Z,1.93
2022-12-24T14:21:30.767Z,1.80
2022-12-24T14:23:59.817Z,2.40
2022-12-24T14:26:30.129Z,2.17
2022-12-24T14:28:59.827Z,2.00
2022-12-24T14:31:27.863Z,2.33
2022-12-24T14:34:06.184Z,1.90
2022-12-24T14:36:33.323Z,2.27
2022-12-24T14:39:00.620Z,1.73
2022-12-24T14:41:43.785Z,1.30
2022-12-24T14:44:20.758Z,1.53
2022-12-24T14:46:56.096Z,1.40
2022-12-24T14:49:36.111Z,2.67
2022-12-24T14:52:30.781Z,2.53
2022-12-24T14:54:57.019Z,2.40
2022-12-24T14:57:25.232Z,3.07
2022-12-24T14:59:53.986Z,2.13
2022-12-24T15:02:34.396Z,2.10
2022-12-24T15:05:14.284Z,2.67
2022-12-24T15:07:47.713Z,2.13
2022-12-24T15:10:29.424Z,2.23
2022-12-24T15:12:57.829Z,2.30
2022-12-24T15:15:25.044Z,2.23
2022-12-24T15:17:54.361Z,2.40
2022-12-24T15:20:24.619Z,1.73
2022-12-24T15:22:53.765Z,1.80
2022-12-24T15:25:23.509Z,1.60
2022-12-24T15:27:50.958Z,1.70
2022-12-24T15:30:19.955Z,1.40
2022-12-24T15:32:46.841Z,1.80
2022-12-24T15:35:39.360Z,1.90
2022-12-24T15:38:25.572Z,1.97
2022-12-24T15:40:52.939Z,1.50
2022-12-24T15:43:20.082Z,1.80
2022-12-24T15:45:47.276Z,2.20
2022-12-24T15:48:18.770Z,2.40
2022-12-24T15:50:48.539Z,2.30
2022-12-24T15:53:22.312Z,2.63
2022-12-24T15:56:05.579Z,2.13
2022-12-24T15:58:34.115Z,2.40
2022-12-24T16:01:03.505Z,4.77
2022-12-24T16:03:31.075Z,3.40
2022-12-24T16:06:03.423Z,3.27
2022-12-24T16:08:34.125Z,2.80
2022-12-24T16:11:10.962Z,2.73
2022-12-24T16:13:40.655Z,2.27
2022-12-24T16:16:10.449Z,2.37
2022-12-24T16:18:38.936Z,1.60
2022-12-24T16:21:07.873Z,1.97
2022-12-24T16:23:39.120Z,1.80
2022-12-24T16:26:05.920Z,1.30
2022-12-24T16:28:33.086Z,1.93
2022-12-24T16:30:59.830Z,3.53
2022-12-24T16:33:26.820Z,2.30
2022-12-24T16:35:53.588Z,2.50
2022-12-24T16:38:22.277Z,2.83
2022-12-24T16:40:49.066Z,2.50
2022-12-24T16:43:15.762Z,1.40
2022-12-24T16:45:44.159Z,2.03
2022-12-24T16:48:19.126Z,2.27
2022-12-24T16:50:46.005Z,3.30
2022-12-24T16:53:17.746Z,2.53
2022-12-24T16:55:46.503Z,2.53
2022-12-24T16:58:14.499Z,2.17
2022-12-24T17:00:41.602Z,2.00
2022-12-24T17:03:09.129Z,2.80
2022-12-24T17:05:38.070Z,2.83
2022-12-24T17:08:05.331Z,3.60
2022-12-24T17:10:32.035Z,2.83
2022-12-24T17:13:00.006Z,3.33
2022-12-24T17:15:27.233Z,3.23
2022-12-24T17:17:53.935Z,2.87
2022-12-24T17:20:24.179Z,2.20
2022-12-24T17:22:51.396Z,2.00
2022-12-24T17:25:18.233Z,2.37
2022-12-24T17:27:44.921Z,1.60
2022-12-24T17:30:13.520Z,1.97
2022-12-24T17:32:40.342Z,2.47
2022-12-24T17:35:07.977Z,1.80
2022-12-24T17:37:34.845Z,2.80
2022-12-24T17:40:01.524Z,2.30
2022-12-24T17:42:28.407Z,2.23
2022-12-24T17:44:55.089Z,2.97
2022-12-24T17:47:23.205Z,3.40
2022-12-24T17:49:49.855Z,3.10
2022-12-24T17:52:16.532Z,2.70
2022-12-24T17:54:43.183Z,3.30
2022-12-24T17:57:09.884Z,3.17
2022-12-24T17:59:36.556Z,3.67
2022-12-24T18:02:03.478Z,3.00
2022-12-24T18:04:31.540Z,3.37
2022-12-24T18:07:02.391Z,2.43
2022-12-24T18:09:29.884Z,2.57
2022-12-24T18:11:56.559Z,2.63
2022-12-24T18:14:23.422Z,2.33
2022-12-24T18:16:50.416Z,2.67
2022-12-24T18:19:17.175Z,2.33
2022-12-24T18:21:45.134Z,3.13
2022-12-24T18:24:12.635Z,2.50
2022-12-24T18:26:39.417Z,3.23
2022-12-24T18:29:06.265Z,2.73
2022-12-24T18:31:33.467Z,2.13
2022-12-24T18:34:01.408Z,2.67
2022-12-24T18:36:28.157Z,2.90
2022-12-24T18:38:56.501Z,2.80
2022-12-24T18:41:25.474Z,2.77
2022-12-24T18:43:52.941Z,3.03
2022-12-24T18:46:21.361Z,2.40
2022-12-24T18:48:48.343Z,2.97
2022-12-24T18:51:15.934Z,2.63
2022-12-24T18:53:43.066Z,2.90
2022-12-24T18:56:14.646Z,3.70
2022-12-24T18:58:42.397Z,3.50
2022-12-24T19:01:13.505Z,3.50
2022-12-24T19:03:40.496Z,3.13
2022-12-24T19:06:07.645Z,3.33
2022-12-24T19:11:23.564Z,4.17
2022-12-24T19:13:51.043Z,3.70
2022-12-24T19:16:18.490Z,3.10
2022-12-24T19:18:45.196Z,3.57
2022-12-24T19:21:13.671Z,4.00
2022-12-24T19:23:40.304Z,3.30
2022-12-24T19:26:07.015Z,3.23
2022-12-24T19:28:35.045Z,3.70
2022-12-24T19:31:03.445Z,4.10
2022-12-24T19:33:30.249Z,4.47
2022-12-24T19:35:56.910Z,4.40
2022-12-24T19:38:23.559Z,5.90
2022-12-24T19:40:50.220Z,4.90
2022-12-24T19:43:16.904Z,4.20
2022-12-24T19:45:44.945Z,5.83
2022-12-24T19:48:11.580Z,5.67
2022-12-24T19:50:38.226Z,4.50
2022-12-24T19:53:04.906Z,6.20
2022-12-24T19:55:31.545Z,4.30
2022-12-24T19:57:58.200Z,4.97
2022-12-24T20:00:24.977Z,4.87
2022-12-24T20:02:53.029Z,4.73
2022-12-24T20:05:19.769Z,4.60
2022-12-24T20:07:46.396Z,5.70
2022-12-24T20:10:13.062Z,5.60
2022-12-24T20:12:39.713Z,3.97
2022-12-24T20:15:07.747Z,5.20
2022-12-24T20:17:34.481Z,5.40
2022-12-24T20:20:02.539Z,5.30
2022-12-24T20:22:29.273Z,6.47
2022-12-24T20:24:55.872Z,6.23
2022-12-24T20:27:22.567Z,6.30
2022-12-24T20:29:49.232Z,6.73
2022-12-24T20:32:15.997Z,5.90
2022-12-24T20:34:42.950Z,5.87
2022-12-24T20:37:10.980Z,6.00
2022-12-24T20:39:37.632Z,7.40
2022-12-24T20:42:04.537Z,7.13
2022-12-24T20:44:31.186Z,6.73
2022-12-24T20:46:57.839Z,6.57
2022-12-24T20:49:24.488Z,7.40
2022-12-24T20:51:51.151Z,8.10
2022-12-24T20:54:19.146Z,8.43
2022-12-24T20:56:45.780Z,8.07
2022-12-24T20:59:24.826Z,8.17
2022-12-24T21:01:52.055Z,8.10
2022-12-24T21:04:19.316Z,6.50
2022-12-24T21:06:45.955Z,8.40
2022-12-24T21:09:12.740Z,7.30
2022-12-24T21:11:40.733Z,9.67
2022-12-24T21:14:07.740Z,7.50
2022-12-24T21:16:35.649Z,6.53
2022-12-24T21:19:02.873Z,6.60
2022-12-24T21:21:29.748Z,7.67
2022-12-24T21:23:56.971Z,6.80
2022-12-24T21:26:23.844Z,7.50
2022-12-24T21:28:52.024Z,9.33
2022-12-24T21:31:18.841Z,7.67
2022-12-24T21:33:45.868Z,7.33
2022-12-24T21:36:13.869Z,7.27
2022-12-24T21:38:40.979Z,8.30
2022-12-24T21:41:09.194Z,7.53
2022-12-24T21:43:36.739Z,7.97
2022-12-24T21:46:07.913Z,7.10
2022-12-24T21:48:34.829Z,8.60
2022-12-24T21:51:01.585Z,8.33
2022-12-24T21:53:28.274Z,7.10
2022-12-24T21:55:54.966Z,7.40
2022-12-24T21:58:21.589Z,7.07
2022-12-24T22:00:48.281Z,8.17
2022-12-24T22:03:16.366Z,7.77
2022-12-24T22:05:43.148Z,7.63
2022-12-24T22:08:09.910Z,7.10
2022-12-24T22:10:37.851Z,6.37
2022-12-24T22:13:04.813Z,8.73
2022-12-24T22:15:31.547Z,7.63
2022-12-24T22:17:58.370Z,8.20
2022-12-24T22:20:26.654Z,7.67
2022-12-24T22:22:53.319Z,7.23
2022-12-24T22:25:20.050Z,7.50
2022-12-24T22:27:46.707Z,7.10
2022-12-24T22:30:13.475Z,7.53
2022-12-24T22:32:40.203Z,8.63
2022-12-24T22:35:07.293Z,7.53
2022-12-24T22:37:35.562Z,7.73
2022-12-24T22:40:02.234Z,9.20
2022-12-24T22:42:31.045Z,7.00
2022-12-24T22:44:57.727Z,8.13
2022-12-24T22:47:24.507Z,8.27
2022-12-24T22:49:51.284Z,9.07
2022-12-24T22:52:18.180Z,8.37
2022-12-24T22:54:46.175Z,7.17
2022-12-24T22:57:12.822Z,8.70
2022-12-24T22:59:39.534Z,7.77
2022-12-24T23:02:07.502Z,6.87
2022-12-24T23:04:35.421Z,9.80
2022-12-24T23:07:02.119Z,7.70
2022-12-24T23:09:28.830Z,7.77
2022-12-24T23:11:56.880Z,9.20
2022-12-24T23:14:23.584Z,9.67
2022-12-24T23:16:50.326Z,8.43
2022-12-24T23:19:17.065Z,7.40
2022-12-24T23:21:43.714Z,7.33
2022-12-24T23:24:11.059Z,6.87
2022-12-24T23:26:37.855Z,7.90
2022-12-24T23:29:06.187Z,7.77
2022-12-24T23:31:32.884Z,7.50
2022-12-24T23:33:59.610Z,7.60
2022-12-24T23:36:26.272Z,7.20
2022-12-24T23:38:52.963Z,7.17
2022-12-24T23:41:19.700Z,8.13
2022-12-24T23:43:46.562Z,7.80
2022-12-24T23:46:16.596Z,6.40
2022-12-24T23:48:43.440Z,9.20
2022-12-24T23:51:14.699Z,6.93
2022-12-24T23:53:41.412Z,5.50
2022-12-24T23:56:09.314Z,7.13
2022-12-24T23:58:35.986Z,5.70
